sensor_id;sensor_type;location;lat;lon;timestamp;P1;durP1;ratioP1;P2;durP2;ratioP2
22603;SDS011;11469;49.024;8.246;2023-03-01T00:01:47;29.05;;;14.00;;
22603;SDS011;11469;49.024;8.246;2023-03-01T00:04:12;32.05;;;14.32;;
22603;SDS011;11469;49.024;8.246;2023-03-01T00:06:38;27.52;;;12.80;;
22603;SDS011;11469;49.024;8.246;2023-03-01T00:09:03;25.92;;;13.82;;
22603;SDS011;11469;49.024;8.246;2023-03-01T00:11:29;24.67;;;12.65;;
22603;SDS011;11469;49.024;8.246;2023-03-01T00:13:57;27.77;;;14.13;;
22603;SDS011;11469;49.024;8.246;2023-03-01T00:16:30;26.17;;;13.05;;
22603;SDS011;11469;49.024;8.246;2023-03-01T00:18:58;29.65;;;13.82;;
22603;SDS011;11469;49.024;8.246;2023-03-01T00:21:24;25.42;;;14.68;;
22603;SDS011;11469;49.024;8.246;2023-03-01T00:23:51;26.30;;;13.93;;
22603;SDS011;11469;49.024;8.246;2023-03-01T00:26:17;28.55;;;12.88;;
22603;SDS011;11469;49.024;8.246;2023-03-01T00:28:44;29.38;;;13.55;;
22603;SDS011;11469;49.024;8.246;2023-03-01T00:31:14;26.00;;;12.88;;
22603;SDS011;11469;49.024;8.246;2023-03-01T00:33:41;32.28;;;13.80;;
22603;SDS011;11469;49.024;8.246;2023-03-01T00:36:08;25.33;;;14.05;;
22603;SDS011;11469;49.024;8.246;2023-03-01T00:38:35;26.67;;;14.60;;
22603;SDS011;11469;49.024;8.246;2023-03-01T00:41:08;29.95;;;13.75;;
22603;SDS011;11469;49.024;8.246;2023-03-01T00:43:39;24.23;;;13.02;;
22603;SDS011;11469;49.024;8.246;2023-03-01T00:46:08;24.90;;;13.43;;
22603;SDS011;11469;49.024;8.246;2023-03-01T00:48:35;28.48;;;13.38;;
22603;SDS011;11469;49.024;8.246;2023-03-01T00:51:08;31.20;;;13.38;;
22603;SDS011;11469;49.024;8.246;2023-03-01T00:53:36;26.33;;;13.40;;
22603;SDS011;11469;49.024;8.246;2023-03-01T00:56:02;26.55;;;12.73;;
22603;SDS011;11469;49.024;8.246;2023-03-01T00:58:28;33.80;;;13.25;;
22603;SDS011;11469;49.024;8.246;2023-03-01T01:00:54;24.55;;;13.05;;
22603;SDS011;11469;49.024;8.246;2023-03-01T01:03:20;31.70;;;13.85;;
22603;SDS011;11469;49.024;8.246;2023-03-01T01:05:46;25.17;;;12.70;;
22603;SDS011;11469;49.024;8.246;2023-03-01T01:08:11;29.65;;;15.23;;
22603;SDS011;11469;49.024;8.246;2023-03-01T01:10:37;27.67;;;15.18;;
22603;SDS011;11469;49.024;8.246;2023-03-01T01:13:02;30.52;;;13.57;;
22603;SDS011;11469;49.024;8.246;2023-03-01T01:15:28;29.92;;;13.15;;
22603;SDS011;11469;49.024;8.246;2023-03-01T01:17:54;25.98;;;13.38;;
22603;SDS011;11469;49.024;8.246;2023-03-01T01:20:19;26.38;;;13.80;;
22603;SDS011;11469;49.024;8.246;2023-03-01T01:22:45;25.90;;;13.68;;
22603;SDS011;11469;49.024;8.246;2023-03-01T01:25:10;30.40;;;13.98;;
22603;SDS011;11469;49.024;8.246;2023-03-01T01:27:36;27.35;;;14.63;;
22603;SDS011;11469;49.024;8.246;2023-03-01T01:30:02;32.35;;;14.02;;
22603;SDS011;11469;49.024;8.246;2023-03-01T01:32:28;33.35;;;14.38;;
22603;SDS011;11469;49.024;8.246;2023-03-01T01:34:54;29.40;;;14.77;;
22603;SDS011;11469;49.024;8.246;2023-03-01T01:37:19;28.02;;;13.05;;
22603;SDS011;11469;49.024;8.246;2023-03-01T01:39:45;27.13;;;13.15;;
22603;SDS011;11469;49.024;8.246;2023-03-01T01:42:15;27.55;;;13.80;;
22603;SDS011;11469;49.024;8.246;2023-03-01T01:44:42;28.92;;;13.50;;
22603;SDS011;11469;49.024;8.246;2023-03-01T01:47:15;29.13;;;14.18;;
22603;SDS011;11469;49.024;8.246;2023-03-01T01:50:17;25.90;;;13.18;;
22603;SDS011;11469;49.024;8.246;2023-03-01T01:52:41;26.73;;;13.65;;
22603;SDS011;11469;49.024;8.246;2023-03-01T01:55:08;30.33;;;13.38;;
22603;SDS011;11469;49.024;8.246;2023-03-01T01:57:46;32.63;;;14.32;;
22603;SDS011;11469;49.024;8.246;2023-03-01T02:00:25;27.38;;;13.63;;
22603;SDS011;11469;49.024;8.246;2023-03-01T02:02:59;26.35;;;14.13;;
22603;SDS011;11469;49.024;8.246;2023-03-01T02:08:19;26.60;;;14.80;;
22603;SDS011;11469;49.024;8.246;2023-03-01T02:10:46;25.40;;;13.10;;
22603;SDS011;11469;49.024;8.246;2023-03-01T02:13:14;27.55;;;14.27;;
22603;SDS011;11469;49.024;8.246;2023-03-01T02:15:40;31.95;;;14.23;;
22603;SDS011;11469;49.024;8.246;2023-03-01T02:18:06;30.23;;;14.90;;
22603;SDS011;11469;49.024;8.246;2023-03-01T02:23:27;27.92;;;14.13;;
22603;SDS011;11469;49.024;8.246;2023-03-01T02:28:40;31.58;;;14.68;;
22603;SDS011;11469;49.024;8.246;2023-03-01T02:31:09;28.50;;;14.27;;
22603;SDS011;11469;49.024;8.246;2023-03-01T02:33:58;34.65;;;15.27;;
22603;SDS011;11469;49.024;8.246;2023-03-01T02:36:29;31.33;;;15.27;;
22603;SDS011;11469;49.024;8.246;2023-03-01T02:38:59;34.53;;;16.17;;
22603;SDS011;11469;49.024;8.246;2023-03-01T02:41:28;27.60;;;15.13;;
22603;SDS011;11469;49.024;8.246;2023-03-01T02:43:57;28.88;;;14.95;;
22603;SDS011;11469;49.024;8.246;2023-03-01T02:46:24;33.97;;;15.93;;
22603;SDS011;11469;49.024;8.246;2023-03-01T02:48:57;29.60;;;15.80;;
22603;SDS011;11469;49.024;8.246;2023-03-01T02:56:38;27.23;;;14.57;;
22603;SDS011;11469;49.024;8.246;2023-03-01T02:59:03;30.90;;;14.32;;
22603;SDS011;11469;49.024;8.246;2023-03-01T03:01:29;28.92;;;14.27;;
22603;SDS011;11469;49.024;8.246;2023-03-01T03:04:05;30.83;;;14.55;;
22603;SDS011;11469;49.024;8.246;2023-03-01T03:06:31;30.52;;;14.35;;
22603;SDS011;11469;49.024;8.246;2023-03-01T03:08:57;33.65;;;15.82;;
22603;SDS011;11469;49.024;8.246;2023-03-01T03:11:23;32.53;;;14.85;;
22603;SDS011;11469;49.024;8.246;2023-03-01T03:13:48;31.83;;;14.88;;
22603;SDS011;11469;49.024;8.246;2023-03-01T03:16:14;36.50;;;14.75;;
22603;SDS011;11469;49.024;8.246;2023-03-01T03:18:40;33.17;;;15.52;;
22603;SDS011;11469;49.024;8.246;2023-03-01T03:21:09;30.98;;;15.00;;
22603;SDS011;11469;49.024;8.246;2023-03-01T03:23:36;32.95;;;15.15;;
22603;SDS011;11469;49.024;8.246;2023-03-01T03:26:08;34.47;;;16.58;;
22603;SDS011;11469;49.024;8.246;2023-03-01T03:28:34;32.50;;;16.65;;
22603;SDS011;11469;49.024;8.246;2023-03-01T03:31:00;32.45;;;15.85;;
22603;SDS011;11469;49.024;8.246;2023-03-01T03:33:29;32.13;;;16.60;;
22603;SDS011;11469;49.024;8.246;2023-03-01T03:35:57;29.73;;;15.23;;
22603;SDS011;11469;49.024;8.246;2023-03-01T03:38:23;31.02;;;16.05;;
22603;SDS011;11469;49.024;8.246;2023-03-01T03:40:50;31.10;;;15.25;;
22603;SDS011;11469;49.024;8.246;2023-03-01T03:43:21;33.20;;;15.90;;
22603;SDS011;11469;49.024;8.246;2023-03-01T03:45:48;31.83;;;15.43;;
22603;SDS011;11469;49.024;8.246;2023-03-01T03:48:15;31.45;;;15.95;;
22603;SDS011;11469;49.024;8.246;2023-03-01T03:50:41;30.42;;;15.00;;
22603;SDS011;11469;49.024;8.246;2023-03-01T03:53:11;32.10;;;16.55;;
22603;SDS011;11469;49.024;8.246;2023-03-01T03:55:37;29.83;;;15.70;;
22603;SDS011;11469;49.024;8.246;2023-03-01T03:58:07;29.48;;;15.73;;
22603;SDS011;11469;49.024;8.246;2023-03-01T04:00:38;31.65;;;16.38;;
22603;SDS011;11469;49.024;8.246;2023-03-01T04:03:06;33.00;;;15.68;;
22603;SDS011;11469;49.024;8.246;2023-03-01T04:05:32;30.52;;;15.25;;
22603;SDS011;11469;49.024;8.246;2023-03-01T04:07:58;31.60;;;14.90;;
22603;SDS011;11469;49.024;8.246;2023-03-01T04:10:27;29.13;;;15.35;;
22603;SDS011;11469;49.024;8.246;2023-03-01T04:12:54;32.90;;;14.98;;
22603;SDS011;11469;49.024;8.246;2023-03-01T04:15:21;31.20;;;14.05;;
22603;SDS011;11469;49.024;8.246;2023-03-01T04:17:49;36.08;;;15.85;;
22603;SDS011;11469;49.024;8.246;2023-03-01T04:20:18;37.55;;;16.33;;
22603;SDS011;11469;49.024;8.246;2023-03-01T04:22:52;33.30;;;15.80;;
22603;SDS011;11469;49.024;8.246;2023-03-01T04:25:22;33.40;;;15.65;;
22603;SDS011;11469;49.024;8.246;2023-03-01T04:27:48;39.53;;;17.75;;
22603;SDS011;11469;49.024;8.246;2023-03-01T04:30:13;35.72;;;17.58;;
22603;SDS011;11469;49.024;8.246;2023-03-01T04:32:39;34.95;;;16.33;;
22603;SDS011;11469;49.024;8.246;2023-03-01T04:35:04;32.58;;;16.90;;
22603;SDS011;11469;49.024;8.246;2023-03-01T04:37:30;32.10;;;16.30;;
22603;SDS011;11469;49.024;8.246;2023-03-01T04:39:55;32.13;;;16.70;;
22603;SDS011;11469;49.024;8.246;2023-03-01T04:42:21;32.03;;;16.67;;
22603;SDS011;11469;49.024;8.246;2023-03-01T04:44:46;31.95;;;16.65;;
22603;SDS011;11469;49.024;8.246;2023-03-01T04:47:11;35.13;;;16.80;;
22603;SDS011;11469;49.024;8.246;2023-03-01T04:49:37;34.20;;;16.15;;
22603;SDS011;11469;49.024;8.246;2023-03-01T04:52:02;30.40;;;17.02;;
22603;SDS011;11469;49.024;8.246;2023-03-01T04:54:29;39.67;;;17.50;;
22603;SDS011;11469;49.024;8.246;2023-03-01T04:56:55;34.95;;;17.10;;
22603;SDS011;11469;49.024;8.246;2023-03-01T04:59:20;34.35;;;16.80;;
22603;SDS011;11469;49.024;8.246;2023-03-01T05:01:49;29.17;;;15.20;;
22603;SDS011;11469;49.024;8.246;2023-03-01T05:04:16;33.30;;;16.13;;
22603;SDS011;11469;49.024;8.246;2023-03-01T05:06:42;33.70;;;16.90;;
22603;SDS011;11469;49.024;8.246;2023-03-01T05:09:07;36.17;;;17.30;;
22603;SDS011;11469;49.024;8.246;2023-03-01T05:11:33;35.22;;;17.05;;
22603;SDS011;11469;49.024;8.246;2023-03-01T05:14:03;34.25;;;17.30;;
22603;SDS011;11469;49.024;8.246;2023-03-01T05:16:30;33.22;;;16.63;;
22603;SDS011;11469;49.024;8.246;2023-03-01T05:18:56;37.63;;;17.42;;
22603;SDS011;11469;49.024;8.246;2023-03-01T05:21:22;42.30;;;16.90;;
22603;SDS011;11469;49.024;8.246;2023-03-01T05:23:48;35.35;;;17.92;;
22603;SDS011;11469;49.024;8.246;2023-03-01T05:26:14;37.15;;;18.00;;
22603;SDS011;11469;49.024;8.246;2023-03-01T05:28:41;35.38;;;18.00;;
22603;SDS011;11469;49.024;8.246;2023-03-01T05:31:06;36.35;;;17.90;;
22603;SDS011;11469;49.024;8.246;2023-03-01T05:33:35;35.83;;;17.08;;
22603;SDS011;11469;49.024;8.246;2023-03-01T05:36:02;36.92;;;17.55;;
22603;SDS011;11469;49.024;8.246;2023-03-01T05:38:28;34.78;;;17.63;;
22603;SDS011;11469;49.024;8.246;2023-03-01T05:40:53;38.15;;;18.60;;
22603;SDS011;11469;49.024;8.246;2023-03-01T05:43:18;38.22;;;17.65;;
22603;SDS011;11469;49.024;8.246;2023-03-01T05:45:44;40.22;;;18.75;;
22603;SDS011;11469;49.024;8.246;2023-03-01T05:48:09;42.75;;;18.88;;
22603;SDS011;11469;49.024;8.246;2023-03-01T05:50:36;37.92;;;18.75;;
22603;SDS011;11469;49.024;8.246;2023-03-01T05:53:06;37.13;;;17.63;;
22603;SDS011;11469;49.024;8.246;2023-03-01T05:55:34;40.92;;;20.27;;
22603;SDS011;11469;49.024;8.246;2023-03-01T05:58:01;44.22;;;18.88;;
22603;SDS011;11469;49.024;8.246;2023-03-01T06:00:29;37.88;;;18.60;;
22603;SDS011;11469;49.024;8.246;2023-03-01T06:02:55;43.38;;;20.40;;
22603;SDS011;11469;49.024;8.246;2023-03-01T06:05:21;45.60;;;19.17;;
22603;SDS011;11469;49.024;8.246;2023-03-01T06:07:48;43.45;;;19.75;;
22603;SDS011;11469;49.024;8.246;2023-03-01T06:10:13;37.58;;;18.73;;
22603;SDS011;11469;49.024;8.246;2023-03-01T06:12:40;36.45;;;19.05;;
22603;SDS011;11469;49.024;8.246;2023-03-01T06:15:07;36.00;;;17.60;;
22603;SDS011;11469;49.024;8.246;2023-03-01T06:17:37;43.03;;;19.42;;
22603;SDS011;11469;49.024;8.246;2023-03-01T06:20:05;41.45;;;20.20;;
22603;SDS011;11469;49.024;8.246;2023-03-01T06:22:36;41.08;;;21.33;;
22603;SDS011;11469;49.024;8.246;2023-03-01T06:25:02;38.65;;;19.30;;
22603;SDS011;11469;49.024;8.246;2023-03-01T06:27:28;43.50;;;20.02;;
22603;SDS011;11469;49.024;8.246;2023-03-01T06:29:54;43.25;;;20.63;;
22603;SDS011;11469;49.024;8.246;2023-03-01T06:32:19;40.95;;;20.05;;
22603;SDS011;11469;49.024;8.246;2023-03-01T06:34:44;42.45;;;19.10;;
22603;SDS011;11469;49.024;8.246;2023-03-01T06:37:10;45.67;;;20.63;;
22603;SDS011;11469;49.024;8.246;2023-03-01T06:39:35;43.67;;;21.77;;
22603;SDS011;11469;49.024;8.246;2023-03-01T06:42:01;43.95;;;20.48;;
22603;SDS011;11469;49.024;8.246;2023-03-01T06:44:26;42.97;;;20.65;;
22603;SDS011;11469;49.024;8.246;2023-03-01T06:46:51;42.13;;;20.20;;
22603;SDS011;11469;49.024;8.246;2023-03-01T06:49:17;42.70;;;20.58;;
22603;SDS011;11469;49.024;8.246;2023-03-01T06:51:43;44.20;;;21.27;;
22603;SDS011;11469;49.024;8.246;2023-03-01T06:54:08;42.25;;;20.73;;
22603;SDS011;11469;49.024;8.246;2023-03-01T06:56:34;41.58;;;19.73;;
22603;SDS011;11469;49.024;8.246;2023-03-01T06:59:00;48.72;;;20.98;;
22603;SDS011;11469;49.024;8.246;2023-03-01T07:01:25;53.28;;;21.13;;
22603;SDS011;11469;49.024;8.246;2023-03-01T07:03:50;48.00;;;22.38;;
22603;SDS011;11469;49.024;8.246;2023-03-01T07:06:16;44.38;;;20.67;;
22603;SDS011;11469;49.024;8.246;2023-03-01T07:08:42;43.22;;;21.63;;
22603;SDS011;11469;49.024;8.246;2023-03-01T07:11:08;45.88;;;21.73;;
22603;SDS011;11469;49.024;8.246;2023-03-01T07:13:33;42.63;;;20.67;;
22603;SDS011;11469;49.024;8.246;2023-03-01T07:15:59;49.17;;;22.33;;
22603;SDS011;11469;49.024;8.246;2023-03-01T07:18:24;49.50;;;22.10;;
22603;SDS011;11469;49.024;8.246;2023-03-01T07:20:49;51.25;;;21.83;;
22603;SDS011;11469;49.024;8.246;2023-03-01T07:23:15;49.08;;;22.23;;
22603;SDS011;11469;49.024;8.246;2023-03-01T07:25:41;45.85;;;22.10;;
22603;SDS011;11469;49.024;8.246;2023-03-01T07:28:06;43.67;;;21.38;;
22603;SDS011;11469;49.024;8.246;2023-03-01T07:30:32;50.15;;;21.80;;
22603;SDS011;11469;49.024;8.246;2023-03-01T07:32:57;53.60;;;22.02;;
22603;SDS011;11469;49.024;8.246;2023-03-01T07:35:23;41.08;;;20.85;;
22603;SDS011;11469;49.024;8.246;2023-03-01T07:37:51;48.83;;;22.55;;
22603;SDS011;11469;49.024;8.246;2023-03-01T07:40:16;43.28;;;21.02;;
22603;SDS011;11469;49.024;8.246;2023-03-01T07:42:42;46.15;;;20.95;;
22603;SDS011;11469;49.024;8.246;2023-03-01T07:45:08;43.60;;;21.75;;
22603;SDS011;11469;49.024;8.246;2023-03-01T07:47:33;51.35;;;21.95;;
22603;SDS011;11469;49.024;8.246;2023-03-01T07:49:59;51.58;;;22.27;;
22603;SDS011;11469;49.024;8.246;2023-03-01T07:52:26;46.78;;;21.73;;
22603;SDS011;11469;49.024;8.246;2023-03-01T07:54:51;67.50;;;26.77;;
22603;SDS011;11469;49.024;8.246;2023-03-01T07:57:17;48.38;;;23.13;;
22603;SDS011;11469;49.024;8.246;2023-03-01T07:59:42;54.47;;;23.95;;
22603;SDS011;11469;49.024;8.246;2023-03-01T08:02:08;48.20;;;23.95;;
22603;SDS011;11469;49.024;8.246;2023-03-01T08:04:34;48.00;;;22.63;;
22603;SDS011;11469;49.024;8.246;2023-03-01T08:07:00;45.25;;;21.67;;
22603;SDS011;11469;49.024;8.246;2023-03-01T08:09:25;48.92;;;25.23;;
22603;SDS011;11469;49.024;8.246;2023-03-01T08:11:51;46.60;;;20.63;;
22603;SDS011;11469;49.024;8.246;2023-03-01T08:14:16;45.70;;;22.17;;
22603;SDS011;11469;49.024;8.246;2023-03-01T08:16:42;49.65;;;21.92;;
22603;SDS011;11469;49.024;8.246;2023-03-01T08:19:08;41.35;;;20.98;;
22603;SDS011;11469;49.024;8.246;2023-03-01T08:21:35;52.22;;;22.42;;
22603;SDS011;11469;49.024;8.246;2023-03-01T08:24:02;41.85;;;20.95;;
22603;SDS011;11469;49.024;8.246;2023-03-01T08:26:28;45.22;;;22.02;;
22603;SDS011;11469;49.024;8.246;2023-03-01T08:28:54;44.75;;;22.23;;
22603;SDS011;11469;49.024;8.246;2023-03-01T08:31:24;48.28;;;22.40;;
22603;SDS011;11469;49.024;8.246;2023-03-01T08:33:55;42.25;;;20.15;;
22603;SDS011;11469;49.024;8.246;2023-03-01T08:36:24;52.10;;;24.77;;
22603;SDS011;11469;49.024;8.246;2023-03-01T08:38:51;45.03;;;22.80;;
22603;SDS011;11469;49.024;8.246;2023-03-01T08:41:17;50.20;;;22.67;;
22603;SDS011;11469;49.024;8.246;2023-03-01T08:43:43;42.58;;;21.23;;
22603;SDS011;11469;49.024;8.246;2023-03-01T08:46:08;38.53;;;19.92;;
22603;SDS011;11469;49.024;8.246;2023-03-01T08:48:34;45.17;;;19.48;;
22603;SDS011;11469;49.024;8.246;2023-03-01T08:51:19;43.40;;;20.70;;
22603;SDS011;11469;49.024;8.246;2023-03-01T08:53:47;36.85;;;14.73;;
22603;SDS011;11469;49.024;8.246;2023-03-01T08:56:13;43.97;;;21.00;;
22603;SDS011;11469;49.024;8.246;2023-03-01T08:58:39;40.35;;;17.60;;
22603;SDS011;11469;49.024;8.246;2023-03-01T09:01:11;33.22;;;16.13;;
22603;SDS011;11469;49.024;8.246;2023-03-01T09:03:40;43.88;;;20.33;;
22603;SDS011;11469;49.024;8.246;2023-03-01T09:06:06;45.58;;;21.55;;
22603;SDS011;11469;49.024;8.246;2023-03-01T09:08:38;40.03;;;19.58;;
22603;SDS011;11469;49.024;8.246;2023-03-01T09:11:06;37.83;;;19.55;;
22603;SDS011;11469;49.024;8.246;2023-03-01T09:13:33;47.35;;;20.42;;
22603;SDS011;11469;49.024;8.246;2023-03-01T09:16:00;40.38;;;20.30;;
22603;SDS011;11469;49.024;8.246;2023-03-01T09:18:27;40.10;;;18.70;;
22603;SDS011;11469;49.024;8.246;2023-03-01T09:20:52;41.38;;;19.85;;
22603;SDS011;11469;49.024;8.246;2023-03-01T09:23:20;42.70;;;20.42;;
22603;SDS011;11469;49.024;8.246;2023-03-01T09:25:46;40.60;;;20.02;;
22603;SDS011;11469;49.024;8.246;2023-03-01T09:28:11;34.75;;;15.52;;
22603;SDS011;11469;49.024;8.246;2023-03-01T09:30:37;40.50;;;20.23;;
22603;SDS011;11469;49.024;8.246;2023-03-01T09:33:02;45.05;;;20.83;;
22603;SDS011;11469;49.024;8.246;2023-03-01T09:35:28;34.38;;;16.70;;
22603;SDS011;11469;49.024;8.246;2023-03-01T09:37:53;36.95;;;17.23;;
22603;SDS011;11469;49.024;8.246;2023-03-01T09:40:20;41.28;;;20.65;;
22603;SDS011;11469;49.024;8.246;2023-03-01T09:43:06;35.65;;;18.15;;
22603;SDS011;11469;49.024;8.246;2023-03-01T09:45:54;33.90;;;16.13;;
22603;SDS011;11469;49.024;8.246;2023-03-01T09:48:24;31.13;;;15.25;;
22603;SDS011;11469;49.024;8.246;2023-03-01T09:50:52;41.47;;;20.05;;
22603;SDS011;11469;49.024;8.246;2023-03-01T09:53:22;43.03;;;20.83;;
22603;SDS011;11469;49.024;8.246;2023-03-01T09:55:55;36.05;;;18.13;;
22603;SDS011;11469;49.024;8.246;2023-03-01T09:58:36;35.85;;;18.40;;
22603;SDS011;11469;49.024;8.246;2023-03-01T10:01:11;38.72;;;20.05;;
22603;SDS011;11469;49.024;8.246;2023-03-01T10:09:10;41.03;;;19.13;;
22603;SDS011;11469;49.024;8.246;2023-03-01T10:11:44;47.03;;;20.98;;
22603;SDS011;11469;49.024;8.246;2023-03-01T10:14:31;37.33;;;19.30;;
22603;SDS011;11469;49.024;8.246;2023-03-01T10:17:03;36.78;;;17.75;;
22603;SDS011;11469;49.024;8.246;2023-03-01T10:24:46;41.53;;;20.33;;
22603;SDS011;11469;49.024;8.246;2023-03-01T10:32:52;44.65;;;20.08;;
22603;SDS011;11469;49.024;8.246;2023-03-01T10:35:23;37.38;;;19.90;;
22603;SDS011;11469;49.024;8.246;2023-03-01T10:38:08;34.90;;;17.88;;
22603;SDS011;11469;49.024;8.246;2023-03-01T10:40:35;38.17;;;18.27;;
22603;SDS011;11469;49.024;8.246;2023-03-01T10:43:14;34.08;;;17.77;;
22603;SDS011;11469;49.024;8.246;2023-03-01T10:45:39;38.20;;;19.05;;
22603;SDS011;11469;49.024;8.246;2023-03-01T10:50:33;38.30;;;20.73;;
22603;SDS011;11469;49.024;8.246;2023-03-01T10:53:01;39.42;;;20.88;;
22603;SDS011;11469;49.024;8.246;2023-03-01T10:55:38;41.72;;;20.77;;
22603;SDS011;11469;49.024;8.246;2023-03-01T11:00:51;41.60;;;20.60;;
22603;SDS011;11469;49.024;8.246;2023-03-01T11:03:37;34.05;;;15.45;;
22603;SDS011;11469;49.024;8.246;2023-03-01T11:06:05;34.30;;;16.58;;
22603;SDS011;11469;49.024;8.246;2023-03-01T11:11:17;44.22;;;20.52;;
22603;SDS011;11469;49.024;8.246;2023-03-01T11:13:55;41.78;;;20.35;;
22603;SDS011;11469;49.024;8.246;2023-03-01T11:16:27;49.65;;;20.52;;
22603;SDS011;11469;49.024;8.246;2023-03-01T11:18:59;38.50;;;20.73;;
22603;SDS011;11469;49.024;8.246;2023-03-01T11:21:29;39.70;;;20.90;;
22603;SDS011;11469;49.024;8.246;2023-03-01T11:23:59;38.63;;;19.92;;
22603;SDS011;11469;49.024;8.246;2023-03-01T11:26:27;39.88;;;17.73;;
22603;SDS011;11469;49.024;8.246;2023-03-01T11:28:55;46.42;;;21.85;;
22603;SDS011;11469;49.024;8.246;2023-03-01T11:31:27;40.45;;;19.42;;
22603;SDS011;11469;49.024;8.246;2023-03-01T11:33:59;38.97;;;18.67;;
22603;SDS011;11469;49.024;8.246;2023-03-01T11:39:03;35.80;;;19.95;;
22603;SDS011;11469;49.024;8.246;2023-03-01T11:41:40;36.72;;;18.60;;
22603;SDS011;11469;49.024;8.246;2023-03-01T11:52:38;37.67;;;19.42;;
22603;SDS011;11469;49.024;8.246;2023-03-01T12:00:53;36.20;;;18.65;;
22603;SDS011;11469;49.024;8.246;2023-03-01T12:14:04;37.20;;;19.95;;
22603;SDS011;11469;49.024;8.246;2023-03-01T12:27:51;39.30;;;18.48;;
22603;SDS011;11469;49.024;8.246;2023-03-01T12:44:01;29.67;;;16.58;;
22603;SDS011;11469;49.024;8.246;2023-03-01T12:49:19;38.08;;;19.58;;
22603;SDS011;11469;49.024;8.246;2023-03-01T12:52:00;40.58;;;18.10;;
22603;SDS011;11469;49.024;8.246;2023-03-01T12:54:30;31.17;;;16.00;;
22603;SDS011;11469;49.024;8.246;2023-03-01T12:56:59;36.55;;;17.85;;
22603;SDS011;11469;49.024;8.246;2023-03-01T12:59:47;32.28;;;17.88;;
22603;SDS011;11469;49.024;8.246;2023-03-01T13:02:31;35.92;;;19.92;;
22603;SDS011;11469;49.024;8.246;2023-03-01T13:05:24;35.28;;;19.35;;
22603;SDS011;11469;49.024;8.246;2023-03-01T13:13:14;31.20;;;17.10;;
22603;SDS011;11469;49.024;8.246;2023-03-01T13:15:44;34.83;;;18.77;;
22603;SDS011;11469;49.024;8.246;2023-03-01T13:36:10;43.33;;;18.10;;
22603;SDS011;11469;49.024;8.246;2023-03-01T13:39:03;41.20;;;18.42;;
22603;SDS011;11469;49.024;8.246;2023-03-01T13:46:45;38.00;;;19.05;;
22603;SDS011;11469;49.024;8.246;2023-03-01T13:49:13;36.60;;;18.27;;
22603;SDS011;11469;49.024;8.246;2023-03-01T13:51:41;32.35;;;16.92;;
22603;SDS011;11469;49.024;8.246;2023-03-01T13:54:11;30.63;;;15.70;;
22603;SDS011;11469;49.024;8.246;2023-03-01T13:56:38;32.05;;;16.42;;
22603;SDS011;11469;49.024;8.246;2023-03-01T13:59:17;26.25;;;15.18;;
22603;SDS011;11469;49.024;8.246;2023-03-01T14:01:44;31.98;;;18.75;;
22603;SDS011;11469;49.024;8.246;2023-03-01T14:04:22;37.75;;;18.05;;
22603;SDS011;11469;49.024;8.246;2023-03-01T14:07:08;33.10;;;16.92;;
22603;SDS011;11469;49.024;8.246;2023-03-01T14:09:37;33.20;;;17.20;;
22603;SDS011;11469;49.024;8.246;2023-03-01T14:20:33;27.83;;;15.82;;
22603;SDS011;11469;49.024;8.246;2023-03-01T14:23:09;30.10;;;16.33;;
22603;SDS011;11469;49.024;8.246;2023-03-01T14:25:46;30.52;;;17.50;;
22603;SDS011;11469;49.024;8.246;2023-03-01T14:28:17;35.13;;;17.40;;
22603;SDS011;11469;49.024;8.246;2023-03-01T14:30:49;30.40;;;15.60;;
22603;SDS011;11469;49.024;8.246;2023-03-01T14:33:20;33.88;;;17.83;;
22603;SDS011;11469;49.024;8.246;2023-03-01T14:36:01;40.90;;;17.20;;
22603;SDS011;11469;49.024;8.246;2023-03-01T14:38:38;28.95;;;17.05;;
22603;SDS011;11469;49.024;8.246;2023-03-01T14:41:14;33.70;;;15.90;;
22603;SDS011;11469;49.024;8.246;2023-03-01T14:43:46;35.10;;;16.90;;
22603;SDS011;11469;49.024;8.246;2023-03-01T14:46:19;29.00;;;15.13;;
22603;SDS011;11469;49.024;8.246;2023-03-01T14:48:49;28.95;;;13.77;;
22603;SDS011;11469;49.024;8.246;2023-03-01T14:51:16;33.78;;;16.02;;
22603;SDS011;11469;49.024;8.246;2023-03-01T14:53:41;28.23;;;16.63;;
22603;SDS011;11469;49.024;8.246;2023-03-01T14:56:12;31.40;;;16.08;;
22603;SDS011;11469;49.024;8.246;2023-03-01T14:58:39;33.88;;;17.73;;
22603;SDS011;11469;49.024;8.246;2023-03-01T15:01:04;29.63;;;15.60;;
22603;SDS011;11469;49.024;8.246;2023-03-01T15:03:31;31.50;;;16.67;;
22603;SDS011;11469;49.024;8.246;2023-03-01T15:06:00;30.23;;;15.85;;
22603;SDS011;11469;49.024;8.246;2023-03-01T15:08:27;28.77;;;17.27;;
22603;SDS011;11469;49.024;8.246;2023-03-01T15:13:32;28.23;;;16.83;;
22603;SDS011;11469;49.024;8.246;2023-03-01T15:16:03;28.88;;;16.83;;
22603;SDS011;11469;49.024;8.246;2023-03-01T15:18:31;29.60;;;16.30;;
22603;SDS011;11469;49.024;8.246;2023-03-01T15:21:08;29.88;;;17.25;;
22603;SDS011;11469;49.024;8.246;2023-03-01T15:23:38;29.55;;;17.27;;
22603;SDS011;11469;49.024;8.246;2023-03-01T15:26:05;29.75;;;16.77;;
22603;SDS011;11469;49.024;8.246;2023-03-01T15:28:31;33.35;;;17.83;;
22603;SDS011;11469;49.024;8.246;2023-03-01T15:31:04;31.30;;;18.08;;
22603;SDS011;11469;49.024;8.246;2023-03-01T15:33:45;33.33;;;17.10;;
22603;SDS011;11469;49.024;8.246;2023-03-01T15:38:58;34.28;;;16.88;;
22603;SDS011;11469;49.024;8.246;2023-03-01T15:44:14;34.47;;;17.50;;
22603;SDS011;11469;49.024;8.246;2023-03-01T15:46:45;33.15;;;17.90;;
22603;SDS011;11469;49.024;8.246;2023-03-01T15:49:24;33.75;;;18.73;;
22603;SDS011;11469;49.024;8.246;2023-03-01T15:51:51;34.13;;;18.23;;
22603;SDS011;11469;49.024;8.246;2023-03-01T15:54:20;32.70;;;17.80;;
22603;SDS011;11469;49.024;8.246;2023-03-01T15:56:49;36.35;;;19.05;;
22603;SDS011;11469;49.024;8.246;2023-03-01T15:59:15;32.20;;;17.48;;
22603;SDS011;11469;49.024;8.246;2023-03-01T16:01:41;32.50;;;18.05;;
22603;SDS011;11469;49.024;8.246;2023-03-01T16:04:11;34.33;;;19.10;;
22603;SDS011;11469;49.024;8.246;2023-03-01T16:06:41;35.72;;;18.08;;
22603;SDS011;11469;49.024;8.246;2023-03-01T16:09:07;35.80;;;19.30;;
22603;SDS011;11469;49.024;8.246;2023-03-01T16:11:32;30.15;;;17.48;;
22603;SDS011;11469;49.024;8.246;2023-03-01T16:14:01;33.08;;;17.20;;
22603;SDS011;11469;49.024;8.246;2023-03-01T16:16:27;35.20;;;19.35;;
22603;SDS011;11469;49.024;8.246;2023-03-01T16:18:52;34.80;;;18.65;;
22603;SDS011;11469;49.024;8.246;2023-03-01T16:21:22;31.25;;;16.83;;
22603;SDS011;11469;49.024;8.246;2023-03-01T16:23:49;30.15;;;17.15;;
22603;SDS011;11469;49.024;8.246;2023-03-01T16:26:15;30.17;;;14.75;;
22603;SDS011;11469;49.024;8.246;2023-03-01T16:28:41;38.70;;;17.27;;
22603;SDS011;11469;49.024;8.246;2023-03-01T16:31:08;30.13;;;17.42;;
22603;SDS011;11469;49.024;8.246;2023-03-01T16:33:34;30.10;;;17.63;;
22603;SDS011;11469;49.024;8.246;2023-03-01T16:36:01;31.13;;;16.63;;
22603;SDS011;11469;49.024;8.246;2023-03-01T16:38:31;37.80;;;16.55;;
22603;SDS011;11469;49.024;8.246;2023-03-01T16:40:57;37.33;;;17.55;;
22603;SDS011;11469;49.024;8.246;2023-03-01T16:43:22;30.77;;;15.65;;
22603;SDS011;11469;49.024;8.246;2023-03-01T16:45:47;33.00;;;17.67;;
22603;SDS011;11469;49.024;8.246;2023-03-01T16:48:13;36.70;;;17.88;;